Time;durP1;ratioP1;P1;durP2;ratioP2;P2;SDS_P1;SDS_P2;PMS_P1;PMS_P2;Temp;Humidity;BMP_temperature;BMP_pressure;BME280_temperature;BME280_humidity;BME280_pressure;Samples;Min_cycle;Max_cycle;Signal;HPM_P1;HPM_P2
2022/10/24 00:00:42;;;;;;;24.50;9.50;;;;;;;11.37;94.90;100114.89;51709;1310;1016347;-81
2022/10/24 00:03:34;;;;;;;22.20;9.50;;;;;;;11.38;94.94;100115.98;51831;1310;1016131;-82
2022/10/24 00:06:06;;;;;;;24.60;9.00;;;;;;;11.38;94.90;100123.23;51905;1309;1016823;-81
2022/10/24 00:08:39;;;;;;;23.60;8.40;;;;;;;11.39;95.05;100129.44;51850;1310;1015988;-81
2022/10/24 00:11:13;;;;;;;23.30;8.70;;;;;;;11.37;95.03;100133.74;51917;1279;1016140;-82
2022/10/24 00:13:45;;;;;;;24.70;10.10;;;;;;;11.37;95.06;100132.89;51711;1310;1016239;-82
2022/10/24 00:16:17;;;;;;;25.80;9.80;;;;;;;11.38;95.21;100150.02;51625;1310;1016682;-82
2022/10/24 00:18:49;;;;;;;19.10;8.50;;;;;;;11.38;95.20;100159.31;51926;1293;1015628;-82
2022/10/24 00:21:21;;;;;;;23.00;9.90;;;;;;;11.40;95.17;100150.25;51872;1294;1019136;-81
2022/10/24 00:23:53;;;;;;;20.70;8.40;;;;;;;11.42;95.22;100153.48;51799;1286;1016202;-81
2022/10/24 00:26:24;;;;;;;19.80;8.50;;;;;;;11.42;95.33;100170.56;51837;1309;1015961;-82
2022/10/24 00:28:55;;;;;;;22.20;8.50;;;;;;;11.40;95.44;100186.38;51614;1304;1016151;-82
2022/10/24 00:31:27;;;;;;;20.60;8.70;;;;;;;11.37;95.39;100178.31;51879;1293;1016422;-81
2022/10/24 00:33:59;;;;;;;20.50;8.20;;;;;;;11.35;95.34;100173.40;51841;1306;1019204;-81
2022/10/24 00:36:31;;;;;;;21.30;8.40;;;;;;;11.35;95.60;100162.73;51889;1301;1016120;-80
2022/10/24 00:39:03;;;;;;;22.30;9.00;;;;;;;11.36;95.58;100162.67;51862;1310;1015938;-81
2022/10/24 00:41:37;;;;;;;19.50;8.70;;;;;;;11.38;95.64;100156.40;51835;1311;1015922;-81
2022/10/24 00:44:24;;;;;;;21.20;8.80;;;;;;;11.40;95.44;100142.73;51883;1310;1015836;-81
2022/10/24 00:47:00;;;;;;;22.80;9.20;;;;;;;11.40;95.53;100131.24;51698;1309;1016422;-82
2022/10/24 00:49:39;;;;;;;22.40;10.30;;;;;;;11.41;95.58;100148.30;51697;1310;1017175;-81
2022/10/24 00:52:13;;;;;;;26.30;10.30;;;;;;;11.39;95.69;100156.30;51880;1310;1016504;-80
2022/10/24 00:54:45;;;;;;;21.80;9.40;;;;;;;11.39;95.71;100156.39;51780;1309;1015928;-79
2022/10/24 00:57:23;;;;;;;26.80;10.50;;;;;;;11.41;95.66;100147.20;51886;1308;1016530;-79
2022/10/24 00:59:58;;;;;;;22.20;10.00;;;;;;;11.42;95.86;100148.96;51555;1310;1016315;-81
2022/10/24 01:02:31;;;;;;;23.60;9.70;;;;;;;11.44;95.71;100143.60;51661;1287;1016436;-81
2022/10/24 01:05:06;;;;;;;21.50;9.30;;;;;;;11.45;95.72;100126.44;51830;1310;1016213;-81
2022/10/24 01:07:53;;;;;;;21.50;9.80;;;;;;;11.47;95.91;100106.07;51869;1310;1016366;-81
2022/10/24 01:10:37;;;;;;;23.60;9.70;;;;;;;11.47;95.89;100113.09;51655;1303;1018652;-82
2022/10/24 01:13:20;;;;;;;25.00;10.50;;;;;;;11.48;95.86;100117.73;51890;1309;1016953;-82
2022/10/24 01:16:00;;;;;;;26.10;9.30;;;;;;;11.49;96.09;100121.19;51925;1286;1016404;-81
2022/10/24 01:18:37;;;;;;;21.50;9.40;;;;;;;11.48;95.90;100115.19;51886;1309;1016285;-81
2022/10/24 01:21:23;;;;;;;21.40;10.10;;;;;;;11.48;96.12;100101.87;51622;1294;1015867;-81
2022/10/24 01:24:19;;;;;;;20.90;9.70;;;;;;;11.46;96.24;100097.54;51648;1310;1016533;-82
2022/10/24 01:27:18;;;;;;;24.60;11.30;;;;;;;11.45;96.31;100097.20;51856;1310;1016492;-81
2022/10/24 01:30:00;;;;;;;19.30;8.50;;;;;;;11.44;96.37;100094.70;51383;1316;1016467;-82
2022/10/24 01:32:40;;;;;;;22.70;9.80;;;;;;;11.45;96.33;100081.20;51587;1311;1016485;-81
2022/10/24 01:35:25;;;;;;;20.80;10.20;;;;;;;11.46;96.49;100073.69;51445;1317;1018806;-82
2022/10/24 01:38:04;;;;;;;21.70;9.30;;;;;;;11.48;96.39;100069.84;51500;1311;1016334;-81
2022/10/24 01:40:42;;;;;;;23.10;9.30;;;;;;;11.47;96.32;100056.11;51310;1310;1016455;-81
2022/10/24 01:43:16;;;;;;;21.40;9.40;;;;;;;11.48;96.41;100050.73;51427;1317;1016017;-81
2022/10/24 01:45:53;;;;;;;18.90;8.40;;;;;;;11.48;96.50;100044.80;51399;1317;1016657;-82
2022/10/24 01:48:27;;;;;;;21.70;8.70;;;;;;;11.48;96.41;100038.13;51547;1317;1016061;-81
2022/10/24 01:51:01;;;;;;;20.20;9.50;;;;;;;11.45;96.57;100037.99;51411;1317;1015705;-81
2022/10/24 01:53:32;;;;;;;21.50;9.80;;;;;;;11.44;96.48;100038.89;51340;1317;1016688;-82
2022/10/24 01:56:03;;;;;;;27.50;8.70;;;;;;;11.41;96.68;100040.44;51600;1309;1016168;-82
2022/10/24 01:58:35;;;;;;;17.40;8.00;;;;;;;11.39;96.70;100038.17;51643;1309;1015867;-81
2022/10/24 02:01:12;;;;;;;20.90;9.50;;;;;;;11.38;96.70;100034.77;51556;1315;1016391;-81
2022/10/24 02:03:48;;;;;;;18.60;8.40;;;;;;;11.38;96.62;100028.05;51617;1309;1016435;-81
2022/10/24 02:06:23;;;;;;;18.60;7.50;;;;;;;11.38;96.64;100021.39;51698;1310;1015767;-82
2022/10/24 02:09:00;;;;;;;19.70;8.20;;;;;;;11.41;96.58;100014.73;51606;1294;1018858;-81
2022/10/24 02:11:33;;;;;;;18.70;7.40;;;;;;;11.43;96.74;100017.54;51899;1310;1017980;-81
2022/10/24 02:14:10;;;;;;;20.50;8.30;;;;;;;11.44;96.75;100024.67;51596;1310;1016001;-81
2022/10/24 02:16:42;;;;;;;19.00;7.40;;;;;;;11.44;96.81;100028.90;51923;1300;1017098;-81
2022/10/24 02:19:14;;;;;;;14.10;6.80;;;;;;;11.44;96.80;100024.13;51908;1296;1016165;-81
2022/10/24 02:21:52;;;;;;;20.10;8.10;;;;;;;11.45;96.89;100020.77;51885;1310;1016491;-81
2022/10/24 02:24:29;;;;;;;20.80;7.80;;;;;;;11.46;97.02;100024.59;51846;1310;1016199;-81
2022/10/24 02:27:06;;;;;;;19.30;7.60;;;;;;;11.46;97.19;100031.66;51880;1310;1015694;-81
2022/10/24 02:29:42;;;;;;;17.90;7.50;;;;;;;11.47;96.99;100038.73;51857;1310;1015946;-82
2022/10/24 02:32:17;;;;;;;19.20;7.20;;;;;;;11.49;97.07;100038.95;51894;1310;1016485;-82
2022/10/24 02:34:49;;;;;;;18.60;6.20;;;;;;;11.50;97.00;100038.46;51871;1310;1016520;-81
2022/10/24 02:37:24;;;;;;;16.60;6.50;;;;;;;11.50;96.99;100035.00;51641;1309;1016308;-81
2022/10/24 02:39:57;;;;;;;17.50;6.70;;;;;;;11.51;96.97;100036.14;51649;1309;1015958;-81
2022/10/24 02:42:31;;;;;;;16.90;5.80;;;;;;;11.51;96.88;100037.51;51614;1310;1015847;-81
2022/10/24 02:45:04;;;;;;;18.30;6.60;;;;;;;11.51;96.95;100045.13;51811;1310;1016402;-81
2022/10/24 02:47:38;;;;;;;15.70;6.00;;;;;;;11.51;97.01;100043.45;51799;1308;1020001;-81
2022/10/24 02:50:11;;;;;;;16.70;6.30;;;;;;;11.51;97.01;100037.45;51589;1310;1016486;-80
2022/10/24 02:52:44;;;;;;;19.00;6.70;;;;;;;11.51;96.91;100026.54;51775;1310;1016012;-80
2022/10/24 02:55:16;;;;;;;15.90;6.70;;;;;;;11.53;96.95;100023.75;51634;1308;1016159;-81
2022/10/24 02:57:48;;;;;;;17.40;7.00;;;;;;;11.54;97.12;100027.04;51663;1310;1016128;-81
2022/10/24 03:00:19;;;;;;;17.00;6.70;;;;;;;11.55;97.09;100032.77;51815;1310;1016892;-81
2022/10/24 03:02:50;;;;;;;16.80;6.40;;;;;;;11.56;97.13;100031.41;51848;1284;1018727;-81
2022/10/24 03:05:22;;;;;;;18.70;6.50;;;;;;;11.57;97.08;100027.66;51640;1310;1016312;-82
2022/10/24 03:07:54;;;;;;;16.20;6.10;;;;;;;11.58;97.03;100027.83;51775;1310;1016459;-81
2022/10/24 03:10:25;;;;;;;15.60;5.90;;;;;;;11.58;96.97;100022.85;51722;1311;1018714;-81
2022/10/24 03:12:59;;;;;;;15.40;6.70;;;;;;;11.59;96.81;100018.64;51648;1295;1016118;-80
2022/10/24 03:15:30;;;;;;;15.80;5.70;;;;;;;11.59;96.85;100029.46;51814;1310;1016250;-81
2022/10/24 03:18:01;;;;;;;15.10;5.60;;;;;;;11.58;96.79;100026.25;51631;1309;1016315;-81
2022/10/24 03:20:34;;;;;;;14.60;5.90;;;;;;;11.58;96.58;100024.94;51870;1309;1016345;-81
2022/10/24 03:23:06;;;;;;;14.50;5.80;;;;;;;11.59;96.59;100032.61;51652;1296;1016498;-81
2022/10/24 03:25:38;;;;;;;14.90;5.60;;;;;;;11.59;96.54;100032.56;51584;1310;1016363;-81
2022/10/24 03:28:09;;;;;;;14.60;5.50;;;;;;;11.59;96.49;100024.73;51839;1301;1015879;-81
2022/10/24 03:30:40;;;;;;;14.70;5.50;;;;;;;11.58;96.38;100016.23;51568;1294;1016559;-82
2022/10/24 03:33:11;;;;;;;17.00;6.50;;;;;;;11.59;96.31;100013.80;51949;1310;1016514;-81
2022/10/24 03:35:43;;;;;;;18.70;7.70;;;;;;;11.59;96.47;100014.20;51662;1309;1018600;-82
2022/10/24 03:38:15;;;;;;;21.40;7.90;;;;;;;11.59;96.42;100011.73;51612;1310;1016123;-81
2022/10/24 03:40:46;;;;;;;20.80;8.50;;;;;;;11.58;96.33;100003.52;51666;1283;1016467;-82
2022/10/24 03:43:18;;;;;;;19.40;7.60;;;;;;;11.57;96.33;100000.79;51899;1309;1016570;-82
2022/10/24 03:45:50;;;;;;;18.00;8.10;;;;;;;11.58;96.29;100008.05;51640;1309;1018018;-81
2022/10/24 03:48:21;;;;;;;19.70;6.60;;;;;;;11.56;96.30;100008.90;51562;1296;1018910;-82
2022/10/24 03:50:52;;;;;;;22.40;7.80;;;;;;;11.56;96.08;100004.88;51877;1310;1016406;-81
2022/10/24 03:53:23;;;;;;;18.10;7.10;;;;;;;11.55;96.11;100000.69;51613;1310;1016041;-82
2022/10/24 03:55:56;;;;;;;16.70;7.10;;;;;;;11.54;96.13;100001.45;51633;1296;1016452;-81
2022/10/24 03:58:27;;;;;;;17.40;6.20;;;;;;;11.54;96.21;100010.60;51641;1304;1016236;-82
2022/10/24 04:00:58;;;;;;;20.90;6.80;;;;;;;11.53;96.32;100010.95;51923;1310;1016424;-81
2022/10/24 04:03:30;;;;;;;14.70;6.00;;;;;;;11.52;96.27;100021.23;51604;1286;1017883;-82
2022/10/24 04:06:01;;;;;;;15.00;5.40;;;;;;;11.50;96.31;100025.35;51660;1309;1016301;-82
2022/10/24 04:08:32;;;;;;;15.60;5.90;;;;;;;11.48;96.32;100018.12;51824;1309;1018384;-79
2022/10/24 04:11:04;;;;;;;15.40;5.30;;;;;;;11.47;96.26;100005.70;51622;1310;1015904;-79
2022/10/24 04:13:35;;;;;;;17.20;6.50;;;;;;;11.47;96.23;99991.30;51928;1303;1016247;-80
2022/10/24 04:16:08;;;;;;;18.10;6.60;;;;;;;11.46;96.19;99996.34;51915;1303;1016655;-80
2022/10/24 04:18:40;;;;;;;16.50;6.10;;;;;;;11.47;96.31;99990.34;51698;1304;1015908;-78
2022/10/24 04:21:11;;;;;;;27.00;13.30;;;;;;;11.46;96.31;99986.96;51857;1309;1016255;-79
2022/10/24 04:23:43;;;;;;;32.00;17.20;;;;;;;11.45;96.34;99990.92;51768;1308;1016449;-81
2022/10/24 04:26:16;;;;;;;45.70;32.00;;;;;;;11.44;96.45;99999.67;51717;1310;1016447;-82
2022/10/24 04:28:48;;;;;;;64.60;49.10;;;;;;;11.44;96.47;100002.57;51922;1310;1021532;-82
2022/10/24 04:31:19;;;;;;;68.30;50.40;;;;;;;11.44;96.44;100002.35;51874;1310;1016518;-82
2022/10/24 04:33:50;;;;;;;56.40;40.80;;;;;;;11.44;96.43;100003.08;51682;1302;1016383;-81
2022/10/24 04:36:23;;;;;;;43.90;33.80;;;;;;;11.44;96.36;100004.81;51913;1310;1016194;-81
2022/10/24 04:38:55;;;;;;;45.90;37.10;;;;;;;11.44;96.42;100007.79;51851;1310;1016396;-81
2022/10/24 04:41:26;;;;;;;47.90;36.80;;;;;;;11.43;96.46;100012.11;51950;1293;1016059;-82
2022/10/24 04:43:57;;;;;;;41.90;34.90;;;;;;;11.44;96.55;100017.05;51729;1309;1016129;-82
2022/10/24 04:46:28;;;;;;;40.00;29.50;;;;;;;11.45;96.56;100022.65;51981;1302;1016371;-82
2022/10/24 04:48:59;;;;;;;31.70;24.30;;;;;;;11.45;96.43;100023.25;51810;1310;1015522;-81
2022/10/24 04:51:30;;;;;;;36.40;24.20;;;;;;;11.45;96.42;100021.64;51854;1309;1017926;-82
2022/10/24 04:54:02;;;;;;;32.60;22.20;;;;;;;11.45;96.26;100014.07;51902;1310;1016800;-81
2022/10/24 04:56:33;;;;;;;27.80;16.50;;;;;;;11.44;96.48;100022.03;51613;1310;1015751;-81
2022/10/24 04:59:04;;;;;;;29.30;17.00;;;;;;;11.42;96.47;100029.42;51857;1310;1016197;-81
2022/10/24 05:01:36;;;;;;;28.00;16.80;;;;;;;11.40;96.45;100031.27;51647;1310;1016000;-81
2022/10/24 05:04:08;;;;;;;29.10;15.70;;;;;;;11.39;96.53;100016.08;51711;1310;1016176;-81
2022/10/24 05:06:40;;;;;;;26.90;13.30;;;;;;;11.39;96.44;100022.16;51931;1294;1015982;-81
2022/10/24 05:09:13;;;;;;;23.70;10.50;;;;;;;11.38;96.50;100027.80;51812;1307;1016185;-81
2022/10/24 05:11:44;;;;;;;25.50;11.00;;;;;;;11.36;96.36;100038.29;51727;1280;1015652;-81
2022/10/24 05:14:16;;;;;;;22.10;9.90;;;;;;;11.35;96.53;100037.83;51684;1310;1016393;-81
2022/10/24 05:16:49;;;;;;;20.50;10.10;;;;;;;11.34;96.51;100037.61;51752;1288;1015754;-81
2022/10/24 05:19:20;;;;;;;19.50;8.80;;;;;;;11.34;96.29;100033.89;51721;1287;1016308;-81
2022/10/24 05:21:52;;;;;;;22.90;10.10;;;;;;;11.32;96.21;100041.60;51860;1310;1016942;-81
2022/10/24 05:24:23;;;;;;;22.40;10.20;;;;;;;11.29;96.38;100046.55;51973;1308;1016009;-83
2022/10/24 05:26:55;;;;;;;24.20;10.20;;;;;;;11.29;96.41;100042.42;51874;1310;1015467;-81
2022/10/24 05:29:27;;;;;;;24.50;11.60;;;;;;;11.30;96.47;100042.38;51923;1310;1016401;-81
2022/10/24 05:32:01;;;;;;;25.30;10.80;;;;;;;11.30;96.34;100040.29;51820;1310;1016415;-83
2022/10/24 05:34:33;;;;;;;22.10;9.80;;;;;;;11.28;96.45;100035.65;51656;1309;1016136;-80
2022/10/24 05:37:05;;;;;;;23.30;9.90;;;;;;;11.29;96.46;100031.70;51832;1311;1018732;-82
2022/10/24 05:39:37;;;;;;;18.00;8.10;;;;;;;11.30;96.33;100035.41;51730;1309;1016164;-82
2022/10/24 05:42:10;;;;;;;18.90;8.40;;;;;;;11.31;96.42;100036.15;51696;1309;1016522;-82
2022/10/24 05:44:42;;;;;;;17.60;7.00;;;;;;;11.31;96.36;100035.80;51757;1310;1016095;-82
2022/10/24 05:47:14;;;;;;;17.10;6.40;;;;;;;11.33;96.50;100032.21;51918;1310;1015871;-82
2022/10/24 05:49:45;;;;;;;15.50;5.70;;;;;;;11.33;96.54;100034.95;51728;1311;1016429;-81
2022/10/24 05:52:16;;;;;;;13.00;5.50;;;;;;;11.34;96.47;100040.29;51923;1310;1015759;-81
2022/10/24 05:54:48;;;;;;;15.60;5.70;;;;;;;11.35;96.45;100047.88;52059;1310;1016000;-82
2022/10/24 05:57:23;;;;;;;14.80;5.70;;;;;;;11.34;96.56;100045.64;51646;1309;1016425;-81
2022/10/24 05:59:54;;;;;;;16.30;5.90;;;;;;;11.33;96.61;100051.02;51774;1310;1015842;-82
2022/10/24 06:02:25;;;;;;;15.50;5.30;;;;;;;11.33;96.47;100051.58;51705;1310;1017232;-81
2022/10/24 06:04:57;;;;;;;14.00;5.80;;;;;;;11.33;96.46;100048.63;51951;1310;1015911;-81
2022/10/24 06:07:29;;;;;;;15.30;6.00;;;;;;;11.34;96.49;100047.11;51946;1309;1016684;-81
2022/10/24 06:10:01;;;;;;;14.10;5.40;;;;;;;11.35;96.59;100054.34;51836;1309;1016180;-81
2022/10/24 06:12:34;;;;;;;12.40;5.10;;;;;;;11.37;96.60;100049.94;51726;1309;1016148;-81
2022/10/24 06:15:12;;;;;;;11.50;4.60;;;;;;;11.38;96.52;100049.70;51749;1311;1015836;-81
2022/10/24 06:17:43;;;;;;;14.30;4.80;;;;;;;11.39;96.59;100046.36;51809;1312;1016598;-81
2022/10/24 06:20:15;;;;;;;19.30;4.50;;;;;;;11.42;96.55;100048.23;51833;1304;1016312;-81
2022/10/24 06:22:48;;;;;;;10.80;4.00;;;;;;;11.43;96.86;100046.31;51741;1283;1018401;-81
2022/10/24 06:25:19;;;;;;;15.90;6.10;;;;;;;11.45;96.96;100052.27;51894;1304;1015873;-81
2022/10/24 06:27:51;;;;;;;30.50;14.60;;;;;;;11.47;97.07;100060.70;51723;1304;1017633;-81
2022/10/24 06:30:22;;;;;;;30.50;15.10;;;;;;;11.49;97.17;100061.63;51704;1289;1016495;-81
2022/10/24 06:32:53;;;;;;;25.20;12.60;;;;;;;11.50;97.14;100062.87;51870;1310;1016411;-81
2022/10/24 06:35:25;;;;;;;29.70;16.60;;;;;;;11.53;97.17;100064.21;51697;1302;1016322;-81
2022/10/24 06:37:57;;;;;;;30.30;18.10;;;;;;;11.55;97.25;100069.54;51747;1294;1015979;-82
2022/10/24 06:40:29;;;;;;;37.50;22.70;;;;;;;11.58;97.58;100074.48;51668;1312;1016453;-82
2022/10/24 06:43:01;;;;;;;39.20;22.60;;;;;;;11.60;97.50;100074.58;51888;1311;1016651;-82
2022/10/24 06:45:32;;;;;;;36.70;22.10;;;;;;;11.62;97.78;100075.41;51867;1312;1016399;-81
2022/10/24 06:48:04;;;;;;;28.20;18.00;;;;;;;11.64;97.90;100073.30;51881;1309;1016129;-82
2022/10/24 06:50:38;;;;;;;28.50;17.10;;;;;;;11.66;98.07;100073.90;51689;1312;1016396;-81
2022/10/24 06:53:10;;;;;;;25.50;16.50;;;;;;;11.69;97.96;100064.23;51739;1309;1018895;-82
2022/10/24 06:55:41;;;;;;;26.30;14.80;;;;;;;11.73;98.12;100066.71;51620;1307;1016938;-82
2022/10/24 06:58:12;;;;;;;29.40;13.80;;;;;;;11.76;98.26;100063.65;51886;1310;1016190;-81
2022/10/24 07:00:44;;;;;;;22.00;11.80;;;;;;;11.79;98.14;100061.51;51690;1302;1017339;-81
2022/10/24 07:03:16;;;;;;;24.80;11.20;;;;;;;11.80;98.06;100063.15;51609;1279;1016497;-81
2022/10/24 07:05:48;;;;;;;24.90;10.90;;;;;;;11.84;98.20;100061.66;51654;1312;1016301;-81
2022/10/24 07:08:20;;;;;;;18.50;7.90;;;;;;;11.87;98.27;100059.46;51702;1312;1015903;-82
2022/10/24 07:10:52;;;;;;;18.50;6.60;;;;;;;11.91;98.78;100061.98;51712;1312;1016187;-81
2022/10/24 07:13:23;;;;;;;20.20;6.60;;;;;;;11.98;99.09;100058.52;51678;1312;1018504;-81
2022/10/24 07:15:56;;;;;;;14.40;5.00;;;;;;;12.02;99.11;100057.98;51652;1312;1016543;-81
2022/10/24 07:18:28;;;;;;;15.20;4.70;;;;;;;12.07;99.20;100060.95;51685;1312;1016432;-82
2022/10/24 07:21:03;;;;;;;13.70;3.90;;;;;;;12.12;99.44;100068.11;51926;1312;1016270;-83
2022/10/24 07:23:36;;;;;;;13.30;3.30;;;;;;;12.18;99.51;100071.44;51954;1312;1016493;-81
2022/10/24 07:26:10;;;;;;;13.30;3.60;;;;;;;12.25;99.63;100071.75;51946;1310;1016466;-80
2022/10/24 07:28:43;;;;;;;14.40;3.40;;;;;;;12.31;99.82;100070.02;51862;1312;1016017;-81
2022/10/24 07:31:18;;;;;;;12.10;3.50;;;;;;;12.38;99.77;100070.55;51784;1287;1016315;-81
2022/10/24 07:33:50;;;;;;;11.40;3.20;;;;;;;12.44;99.96;100073.10;51845;1312;1016301;-82
2022/10/24 07:36:23;;;;;;;11.40;3.20;;;;;;;12.51;100.00;100071.88;51938;1312;1016263;-81
2022/10/24 07:38:57;;;;;;;11.20;3.20;;;;;;;12.57;100.00;100068.77;51676;1312;1018038;-81
2022/10/24 07:41:30;;;;;;;10.70;2.60;;;;;;;12.63;100.00;100073.24;51945;1312;1015959;-82
2022/10/24 07:44:02;;;;;;;10.10;2.70;;;;;;;12.69;100.00;100073.65;51767;1310;1016576;-81
2022/10/24 07:46:35;;;;;;;12.00;3.50;;;;;;;12.76;100.00;100077.93;51917;1311;1016110;-82
2022/10/24 07:49:08;;;;;;;11.90;2.50;;;;;;;12.83;100.00;100081.65;51707;1312;1016417;-82
2022/10/24 07:51:43;;;;;;;10.30;2.20;;;;;;;12.89;100.00;100076.19;51696;1309;1016233;-82
2022/10/24 07:54:14;;;;;;;11.50;2.70;;;;;;;12.95;100.00;100073.89;51842;1303;1016332;-83
2022/10/24 07:56:46;;;;;;;10.50;2.30;;;;;;;13.03;100.00;100077.56;51764;1312;1016161;-82
2022/10/24 07:59:18;;;;;;;9.70;2.10;;;;;;;13.11;100.00;100082.23;51766;1309;1017106;-81
2022/10/24 08:01:49;;;;;;;9.90;2.80;;;;;;;13.20;100.00;100089.25;51721;1312;1016660;-81
2022/10/24 08:04:20;;;;;;;9.40;2.30;;;;;;;13.30;100.00;100089.78;51893;1309;1016171;-81
2022/10/24 08:06:51;;;;;;;11.80;2.50;;;;;;;13.41;100.00;100088.10;51686;1312;1015870;-81
2022/10/24 08:09:23;;;;;;;14.00;3.20;;;;;;;13.50;100.00;100078.20;51883;1304;1016537;-82
2022/10/24 08:11:55;;;;;;;8.90;2.10;;;;;;;13.60;100.00;100077.89;51898;1288;1015960;-81
2022/10/24 08:14:28;;;;;;;12.50;2.60;;;;;;;13.72;100.00;100081.81;51885;1312;1015743;-81
2022/10/24 08:17:00;;;;;;;16.20;2.50;;;;;;;13.83;100.00;100081.45;51672;1310;1016259;-82
2022/10/24 08:19:40;;;;;;;8.10;2.50;;;;;;;13.97;100.00;100082.61;51865;1312;1017000;-81
2022/10/24 08:22:13;;;;;;;8.20;2.00;;;;;;;14.09;100.00;100080.86;51670;1309;1016336;-82
2022/10/24 08:24:46;;;;;;;10.00;1.50;;;;;;;14.19;100.00;100079.50;51661;1310;1019734;-82
2022/10/24 08:27:17;;;;;;;8.90;1.80;;;;;;;14.28;100.00;100077.49;51891;1310;1015989;-82
2022/10/24 08:29:48;;;;;;;6.20;1.60;;;;;;;14.37;100.00;100078.17;51718;1312;1016992;-82
2022/10/24 08:32:19;;;;;;;8.50;1.70;;;;;;;14.46;100.00;100080.21;51884;1312;1017529;-82
2022/10/24 08:34:51;;;;;;;12.00;1.90;;;;;;;14.54;100.00;100077.47;51723;1310;1016156;-81
2022/10/24 08:37:22;;;;;;;7.80;2.10;;;;;;;14.62;100.00;100077.16;51873;1288;1016319;-82
2022/10/24 08:39:54;;;;;;;9.00;1.30;;;;;;;14.70;100.00;100074.09;51726;1309;1017614;-81
2022/10/24 08:42:26;;;;;;;5.90;1.30;;;;;;;14.80;100.00;100072.45;51838;1294;1016386;-82
2022/10/24 08:44:59;;;;;;;9.20;1.50;;;;;;;14.88;99.98;100072.39;51815;1312;1016477;-82
2022/10/24 08:47:38;;;;;;;9.40;1.30;;;;;;;14.96;99.84;100073.66;51625;1315;1016265;-82
2022/10/24 08:50:16;;;;;;;7.80;1.30;;;;;;;15.04;99.71;100074.36;51628;1311;1016048;-81
2022/10/24 08:52:56;;;;;;;6.80;1.30;;;;;;;15.12;99.42;100072.67;51870;1310;1016222;-82
2022/10/24 08:55:33;;;;;;;4.00;0.90;;;;;;;15.20;99.13;100070.81;51922;1312;1016379;-82
2022/10/24 08:58:05;;;;;;;9.70;1.20;;;;;;;15.28;98.87;100078.25;51857;1310;1015810;-82
2022/10/24 09:00:41;;;;;;;6.70;1.10;;;;;;;15.35;98.83;100076.48;51894;1312;1016555;-82
2022/10/24 09:03:19;;;;;;;9.10;1.40;;;;;;;15.44;98.51;100073.77;51880;1290;1015590;-82
2022/10/24 09:05:55;;;;;;;9.20;1.70;;;;;;;15.53;98.34;100072.27;51858;1309;1016484;-82
2022/10/24 09:08:32;;;;;;;6.20;1.00;;;;;;;15.63;98.30;100072.64;51881;1309;1015789;-82
2022/10/24 09:11:05;;;;;;;11.30;1.40;;;;;;;15.73;98.17;100073.11;51704;1310;1015808;-82
2022/10/24 09:13:39;;;;;;;8.20;1.10;;;;;;;15.81;98.03;100068.05;51858;1312;1017159;-81
2022/10/24 09:16:17;;;;;;;5.80;0.80;;;;;;;15.88;97.73;100066.95;51860;1311;1016197;-82
2022/10/24 09:18:51;;;;;;;5.90;1.10;;;;;;;15.94;97.52;100064.35;51885;1312;1016318;-82
2022/10/24 09:21:24;;;;;;;8.50;1.30;;;;;;;15.99;97.33;100068.30;51708;1310;1016554;-82
2022/10/24 09:23:56;;;;;;;6.00;0.90;;;;;;;16.04;96.99;100069.32;51872;1311;1018686;-82
2022/10/24 09:26:32;;;;;;;9.60;1.00;;;;;;;16.11;96.85;100073.25;51852;1312;1015616;-82
2022/10/24 09:29:03;;;;;;;5.80;0.90;;;;;;;16.19;96.45;100070.19;51835;1304;1016447;-82
2022/10/24 09:31:35;;;;;;;9.00;1.00;;;;;;;16.28;96.41;100069.67;51896;1309;1016319;-82
2022/10/24 09:34:09;;;;;;;8.80;1.00;;;;;;;16.36;96.25;100070.13;51671;1309;1016051;-82
2022/10/24 09:36:42;;;;;;;8.00;0.90;;;;;;;16.44;96.09;100069.61;51680;1304;1016563;-82
2022/10/24 09:39:30;;;;;;;5.60;0.90;;;;;;;16.49;95.56;100071.05;51850;1312;1016634;-82
2022/10/24 09:42:03;;;;;;;8.40;1.20;;;;;;;16.55;95.53;100073.85;51873;1309;1016382;-82
2022/10/24 09:44:37;;;;;;;3.70;0.90;;;;;;;16.64;95.23;100076.34;51713;1309;1016305;-82
2022/10/24 09:47:25;;;;;;;9.00;1.30;;;;;;;16.74;95.05;100073.80;51776;1312;1016247;-82
2022/10/24 09:49:57;;;;;;;6.10;0.90;;;;;;;16.80;94.67;100073.18;51827;1315;1017140;-82
2022/10/24 09:52:31;;;;;;;7.30;0.80;;;;;;;16.88;94.40;100077.15;51717;1304;1016375;-83
2022/10/24 09:55:20;;;;;;;6.00;0.90;;;;;;;16.96;93.77;100079.85;51674;1312;1016245;-83
2022/10/24 09:57:56;;;;;;;8.40;1.00;;;;;;;17.04;93.82;100084.17;51713;1304;1015917;-82
2022/10/24 10:00:31;;;;;;;4.70;0.70;;;;;;;17.13;93.68;100079.64;51829;1312;1016170;-82
2022/10/24 10:03:21;;;;;;;6.70;1.20;;;;;;;17.24;93.27;100075.20;51826;1312;1016173;-82
2022/10/24 10:05:54;;;;;;;5.30;0.70;;;;;;;17.35;92.38;100071.77;51904;1312;1016979;-82
2022/10/24 10:08:28;;;;;;;8.20;0.90;;;;;;;17.41;91.48;100068.91;51704;1307;1016466;-82
2022/10/24 10:11:03;;;;;;;9.90;0.80;;;;;;;17.49;90.93;100073.26;51683;1309;1017088;-82
2022/10/24 10:13:44;;;;;;;6.70;0.90;;;;;;;17.58;91.02;100070.08;51706;1291;1015608;-82
2022/10/24 10:16:24;;;;;;;4.00;0.70;;;;;;;17.68;90.58;100066.67;51749;1312;1016072;-83
2022/10/24 10:19:05;;;;;;;5.70;0.70;;;;;;;17.78;90.27;100065.67;51682;1312;1016488;-82
2022/10/24 10:21:55;;;;;;;4.50;0.50;;;;;;;17.89;89.84;100059.88;51820;1312;1016311;-82
2022/10/24 10:24:37;;;;;;;5.10;0.60;;;;;;;18.05;89.38;100055.85;51880;1312;1015752;-82
2022/10/24 10:27:31;;;;;;;11.60;0.60;;;;;;;18.18;88.82;100053.66;51651;1312;1015974;-82
2022/10/24 10:30:21;;;;;;;4.30;0.50;;;;;;;18.30;88.23;100049.67;51720;1312;1016192;-82
2022/10/24 10:33:18;;;;;;;3.80;0.70;;;;;;;18.41;87.78;100048.58;51614;1312;1015798;-83
2022/10/24 10:35:57;;;;;;;4.20;0.50;;;;;;;18.53;86.96;100045.21;51832;1311;1015887;-82
2022/10/24 10:38:54;;;;;;;3.50;0.60;;;;;;;18.59;86.79;100049.65;51865;1309;1016508;-82
2022/10/24 10:41:47;;;;;;;6.00;0.90;;;;;;;18.65;86.58;100044.20;51883;1310;1018904;-82
2022/10/24 10:44:35;;;;;;;4.30;0.60;;;;;;;18.72;86.17;100044.08;51691;1312;1016521;-82
2022/10/24 10:47:33;;;;;;;4.40;0.60;;;;;;;18.80;85.80;100038.59;51711;1309;1016176;-82
2022/10/24 10:50:24;;;;;;;4.10;1.00;;;;;;;18.89;85.41;100041.23;51789;1307;1016297;-81
2022/10/24 10:53:05;;;;;;;4.10;0.60;;;;;;;18.95;84.73;100042.86;51911;1310;1016706;-82
2022/10/24 10:55:44;;;;;;;6.50;0.70;;;;;;;18.98;84.44;100044.13;51880;1304;1015782;-82
2022/10/24 10:58:30;;;;;;;6.40;0.70;;;;;;;19.01;84.21;100042.44;51725;1293;1016113;-82
2022/10/24 11:01:13;;;;;;;10.80;0.80;;;;;;;19.02;84.12;100040.66;51645;1309;1015583;-82
2022/10/24 11:03:50;;;;;;;7.10;0.50;;;;;;;19.02;83.82;100043.60;51823;1312;1016180;-82
2022/10/24 11:06:42;;;;;;;4.20;0.80;;;;;;;19.03;83.77;100043.17;51738;1309;1016032;-82
2022/10/24 11:09:27;;;;;;;5.20;0.40;;;;;;;19.06;83.62;100040.59;51740;1311;1015862;-82
2022/10/24 11:12:12;;;;;;;4.40;0.80;;;;;;;19.11;83.49;100038.95;51747;1287;1016487;-82
2022/10/24 11:14:51;;;;;;;6.40;0.60;;;;;;;19.17;83.51;100036.41;51708;1312;1016128;-81
2022/10/24 11:17:28;;;;;;;4.40;0.50;;;;;;;19.23;83.11;100035.52;52037;1305;1016452;-82
2022/10/24 11:20:08;;;;;;;5.00;0.60;;;;;;;19.31;82.68;100038.09;51609;1310;1015710;-82
2022/10/24 11:22:46;;;;;;;2.60;0.50;;;;;;;19.40;82.54;100036.65;51849;1291;1016434;-82
2022/10/24 11:25:25;;;;;;;3.50;0.70;;;;;;;19.47;82.21;100038.08;51848;1310;1016339;-82
2022/10/24 11:28:06;;;;;;;7.20;0.80;;;;;;;19.52;81.21;100030.90;51675;1315;1016009;-83
2022/10/24 11:30:51;;;;;;;8.60;1.10;;;;;;;19.57;80.82;100026.13;51917;1310;1016576;-82
2022/10/24 11:33:28;;;;;;;6.60;0.80;;;;;;;19.60;80.50;100020.45;51650;1312;1015982;-82
2022/10/24 11:36:08;;;;;;;7.20;1.10;;;;;;;19.65;80.58;100013.23;51627;1312;1016226;-83